Terminal Aerodrome Forecast
Issued by NWS

Home | Current Version | Previous Version | Text Only | Print | Product List | Glossary On
Versions: 1 2 3 4 5 6 7 8 9 10 11 12 13 14 15 16 17 18 19
257
FTUS44 KLIX 271726
TAFGPT
TAF
KGPT 271726Z 2718/2818 14014KT P6SM SKC
     FM280100 14010KT P6SM OVC120
     FM280900 14005KT P6SM BKN250
     FM281500 13011KT P6SM BKN250=

USA.gov is the U.S. government's official web portal to all federal, state and local government web resources and services.